EGPM/SCS METAR and TAF weather

Enter ICAO airport designator
Station Type Date Time Source
EGPM METAR 2019/07/17 13:20 UTC NOAA

EGPM 171320Z 14020KT 2000 BR BKN002 14/13 Q1007


Station Type Date Time Source
EGPM Decoded METAR 2019/07/17 13:20 UTC NOAA

Scatsa / Shetland Island, United Kingdom (EGPM) 60-26N 001-18W
Jul 17, 2019 - 09:20 AM EDT / 2019.07.17 1320 UTC
Wind: from the SE (140 degrees) at 23 MPH (20 KT):0
Visibility: 1 mile(s):0
Sky conditions: mostly cloudy
Weather: mist
Temperature: 57 F (14 C)
Dew Point: 55 F (13 C)
Relative Humidity: 93%
Pressure (altimeter): 29.74 in. Hg (1007 hPa)
ob: EGPM 171320Z 14020KT 2000 BR BKN002 14/13 Q1007
cycle: 13

Station Type Date Time Source
EGPM TAF 2013/04/29 03:39 UTC NOAA

TAF TAF EGPM 290337Z 2903/2915 22005KT 9999 SCT030 PROB30
TEMPO 2903/2906 7000 SHRAGS
BECMG 2906/2909 32015KT PROB40
TEMPO 2906/2915 6000 SHRA SHGS BKN012CB

Example: see airport list